createdAt,value
2019-02-23T00:02:01.158Z,74.16
2019-02-23T00:04:29.988Z,74.47
2019-02-23T00:06:59.006Z,74.44
2019-02-23T00:09:27.888Z,74.67
2019-02-23T00:11:56.924Z,74.83
2019-02-23T00:14:25.794Z,74.84
2019-02-23T00:16:54.778Z,74.67
2019-02-23T00:19:25.043Z,74.61
2019-02-23T00:21:54.357Z,74.63
2019-02-23T00:24:23.380Z,74.51
2019-02-23T00:26:52.245Z,74.68
2019-02-23T00:29:21.360Z,74.39
2019-02-23T00:31:50.256Z,74.55
2019-02-23T00:34:19.341Z,74.60
2019-02-23T00:36:48.277Z,74.62
2019-02-23T00:39:17.120Z,74.50
2019-02-23T00:41:46.035Z,74.28
2019-02-23T00:44:14.879Z,74.62
2019-02-23T00:46:43.936Z,74.70
2019-02-23T00:49:12.873Z,74.98
2019-02-23T00:51:41.785Z,74.77
2019-02-23T00:54:10.793Z,74.96
2019-02-23T00:56:39.689Z,75.02
2019-02-23T00:59:08.661Z,75.28
2019-02-23T01:01:37.620Z,75.40
2019-02-23T01:04:06.620Z,75.34
2019-02-23T01:06:35.712Z,74.89
2019-02-23T01:09:05.151Z,75.02
2019-02-23T01:11:34.039Z,74.67
2019-02-23T01:14:03.468Z,74.96
2019-02-23T01:16:32.547Z,74.91
2019-02-23T01:19:01.320Z,74.59
2019-02-23T01:21:30.338Z,74.52
2019-02-23T01:23:59.263Z,74.52
2019-02-23T01:26:28.453Z,74.56
2019-02-23T01:28:57.389Z,74.31
2019-02-23T01:31:26.319Z,74.31
2019-02-23T01:33:55.405Z,74.05
2019-02-23T01:36:24.357Z,73.81
2019-02-23T01:38:53.353Z,74.09
2019-02-23T01:41:22.444Z,74.01
2019-02-23T01:43:51.309Z,73.92
2019-02-23T01:46:20.289Z,73.51
2019-02-23T01:48:49.442Z,73.44
2019-02-23T01:51:19.586Z,73.49
2019-02-23T01:53:48.667Z,73.39
2019-02-23T01:56:17.591Z,72.99
2019-02-23T01:58:46.568Z,72.90
2019-02-23T02:01:15.567Z,73.01
2019-02-23T02:03:44.585Z,72.88
2019-02-23T02:06:13.621Z,72.63
2019-02-23T02:08:42.813Z,72.22
2019-02-23T02:11:12.022Z,72.21
2019-02-23T02:13:41.235Z,71.86
2019-02-23T02:16:10.311Z,71.64
2019-02-23T02:18:39.539Z,71.31
2019-02-23T02:21:08.376Z,71.25
2019-02-23T02:23:37.180Z,70.62
2019-02-23T02:26:06.132Z,70.34
2019-02-23T02:28:35.024Z,70.63
2019-02-23T02:31:04.011Z,70.27
2019-02-23T02:33:33.042Z,70.52
2019-02-23T02:36:02.045Z,70.08
2019-02-23T02:38:30.989Z,70.00
2019-02-23T02:40:59.752Z,70.00
2019-02-23T02:43:28.692Z,70.19
2019-02-23T02:45:57.594Z,69.44
2019-02-23T02:48:26.482Z,69.53
2019-02-23T02:50:55.568Z,69.53
2019-02-23T02:53:24.382Z,69.33
2019-02-23T02:55:53.158Z,70.04
2019-02-23T02:58:22.083Z,69.82
2019-02-23T03:00:50.970Z,69.34
2019-02-23T03:03:19.830Z,69.52
2019-02-23T03:05:48.642Z,69.15
2019-02-23T03:08:17.755Z,69.08
2019-02-23T03:10:46.705Z,69.54
2019-02-23T03:13:15.771Z,69.69
2019-02-23T03:15:44.556Z,69.96
2019-02-23T03:18:13.492Z,69.64
2019-02-23T03:20:42.373Z,69.75
2019-02-23T03:23:11.196Z,69.92
2019-02-23T03:25:40.103Z,69.75
2019-02-23T03:28:08.964Z,69.70
2019-02-23T03:30:37.842Z,69.34
2019-02-23T03:33:06.841Z,69.01
2019-02-23T03:35:35.761Z,68.99
2019-02-23T03:38:05.435Z,68.50
2019-02-23T03:40:34.733Z,68.65
2019-02-23T03:43:03.779Z,68.52
2019-02-23T03:45:32.721Z,68.32
2019-02-23T03:48:01.650Z,68.86
2019-02-23T03:50:30.491Z,68.94
2019-02-23T03:52:59.549Z,69.09
2019-02-23T03:55:28.547Z,69.05
2019-02-23T03:57:57.463Z,69.63
2019-02-23T04:00:26.459Z,69.58
2019-02-23T04:02:55.365Z,69.58
2019-02-23T04:05:24.275Z,69.98
2019-02-23T04:07:53.257Z,70.01
2019-02-23T04:10:24.880Z,69.95
2019-02-23T04:12:53.806Z,70.15
2019-02-23T04:15:22.720Z,70.28
2019-02-23T04:17:51.642Z,69.93
2019-02-23T04:20:20.682Z,69.62
2019-02-23T04:22:49.722Z,69.51
2019-02-23T04:25:18.705Z,69.61
2019-02-23T04:27:47.644Z,69.55
2019-02-23T04:30:16.599Z,69.69
2019-02-23T04:32:45.659Z,69.67
2019-02-23T04:35:14.851Z,69.97
2019-02-23T04:37:43.881Z,69.97
2019-02-23T04:40:12.876Z,70.18
2019-02-23T04:42:41.986Z,70.08
2019-02-23T04:45:12.168Z,70.01
2019-02-23T04:47:41.209Z,69.81
2019-02-23T04:50:10.348Z,69.77
2019-02-23T04:52:39.394Z,69.86
2019-02-23T04:55:08.430Z,70.22
2019-02-23T04:57:37.496Z,70.26
2019-02-23T05:00:07.679Z,70.10
2019-02-23T05:02:38.252Z,69.78
2019-02-23T05:05:08.271Z,69.68
2019-02-23T05:07:37.307Z,69.72
2019-02-23T05:10:06.649Z,69.82
2019-02-23T05:12:35.684Z,70.08
2019-02-23T05:15:06.764Z,69.77
2019-02-23T05:17:35.831Z,70.02
2019-02-23T05:20:05.233Z,70.01
2019-02-23T05:22:34.354Z,70.01
2019-02-23T05:25:06.354Z,70.23
2019-02-23T05:27:35.645Z,70.36
2019-02-23T05:30:06.478Z,70.24
2019-02-23T05:32:36.803Z,70.15
2019-02-23T05:35:06.464Z,70.32
2019-02-23T05:37:35.411Z,70.33
2019-02-23T05:40:06.053Z,70.14
2019-02-23T05:42:38.183Z,70.26
2019-02-23T05:45:07.386Z,70.47
2019-02-23T05:47:37.614Z,70.56
2019-02-23T05:50:08.807Z,70.75
2019-02-23T05:52:37.642Z,70.97
2019-02-23T05:55:10.054Z,70.73
2019-02-23T05:57:40.600Z,70.71
2019-02-23T06:00:10.822Z,70.87
2019-02-23T06:02:44.778Z,70.93
2019-02-23T06:05:12.397Z,71.14
2019-02-23T06:07:43.873Z,71.29
2019-02-23T06:10:14.564Z,71.04
2019-02-23T06:12:45.446Z,71.32
2019-02-23T06:15:15.770Z,70.87
2019-02-23T06:17:44.826Z,70.87
2019-02-23T06:20:15.401Z,71.46
2019-02-23T06:22:46.941Z,71.46
2019-02-23T06:25:18.313Z,71.76
2019-02-23T06:27:48.525Z,71.69
2019-02-23T06:30:18.514Z,71.64
2019-02-23T06:32:48.753Z,71.46
2019-02-23T06:35:17.715Z,71.38
2019-02-23T06:37:46.731Z,71.29
2019-02-23T06:40:15.791Z,71.05
2019-02-23T06:42:44.730Z,71.08
2019-02-23T06:45:13.770Z,70.74
2019-02-23T06:47:44.389Z,70.38
2019-02-23T06:50:13.509Z,70.37
2019-02-23T06:52:42.581Z,70.53
2019-02-23T06:55:11.619Z,70.51
2019-02-23T06:57:42.303Z,70.34
2019-02-23T07:00:13.855Z,70.26
2019-02-23T07:02:42.945Z,69.82
2019-02-23T07:05:12.021Z,70.23
2019-02-23T07:07:41.104Z,69.79
2019-02-23T07:10:11.493Z,69.75
2019-02-23T07:12:42.070Z,69.45
2019-02-23T07:15:11.767Z,68.92
2019-02-23T07:17:40.867Z,68.58
2019-02-23T07:20:11.080Z,68.57
2019-02-23T07:22:40.238Z,68.33
2019-02-23T07:25:09.442Z,67.90
2019-02-23T07:27:38.471Z,67.86
2019-02-23T07:30:10.136Z,67.80
2019-02-23T07:32:41.248Z,67.35
2019-02-23T07:35:15.273Z,66.99
2019-02-23T07:37:49.335Z,66.99
2019-02-23T07:40:18.423Z,66.50
2019-02-23T07:42:48.871Z,66.54
2019-02-23T07:45:18.181Z,66.20
2019-02-23T07:47:48.059Z,65.69
2019-02-23T07:50:17.098Z,65.72
2019-02-23T07:52:48.226Z,65.38
2019-02-23T07:55:17.247Z,64.67
2019-02-23T07:57:46.330Z,64.42
2019-02-23T08:00:16.849Z,64.34
2019-02-23T08:02:45.990Z,64.29
2019-02-23T08:05:15.157Z,64.29
2019-02-23T08:07:44.237Z,64.33
2019-02-23T08:10:14.435Z,63.63
2019-02-23T08:12:43.483Z,63.65
2019-02-23T08:15:13.885Z,63.61
2019-02-23T08:17:42.823Z,63.21
2019-02-23T08:20:13.410Z,63.34
2019-02-23T08:22:43.697Z,63.05
2019-02-23T08:25:12.944Z,62.87
2019-02-23T08:27:42.726Z,62.95
2019-02-23T08:30:15.560Z,62.62
2019-02-23T08:32:44.657Z,62.69
2019-02-23T08:35:13.706Z,62.76
2019-02-23T08:37:42.921Z,62.62
2019-02-23T08:40:12.411Z,61.93
2019-02-23T08:42:41.455Z,61.69
2019-02-23T08:45:10.672Z,61.56
2019-02-23T08:47:42.362Z,61.96
2019-02-23T08:50:14.253Z,61.69
2019-02-23T08:52:49.335Z,61.45
2019-02-23T08:55:14.181Z,61.37
2019-02-23T08:57:44.513Z,60.69
2019-02-23T09:00:15.262Z,59.82
2019-02-23T09:02:48.243Z,59.39
2019-02-23T09:05:18.679Z,59.34
2019-02-23T09:07:50.810Z,59.33
2019-02-23T09:10:22.939Z,58.94
2019-02-23T09:12:52.101Z,58.97
2019-02-23T09:15:22.977Z,58.98
2019-02-23T09:17:52.234Z,58.77
2019-02-23T09:20:29.098Z,58.19
2019-02-23T09:23:00.076Z,58.28
2019-02-23T09:25:24.341Z,58.12
2019-02-23T09:27:54.789Z,58.05
2019-02-23T09:30:26.969Z,57.20
2019-02-23T09:32:56.286Z,57.20
2019-02-23T09:35:29.122Z,57.42
2019-02-23T09:37:58.397Z,56.75
2019-02-23T09:40:27.570Z,56.92
2019-02-23T09:42:56.851Z,57.31
2019-02-23T09:45:26.216Z,56.95
2019-02-23T09:47:55.486Z,55.96
2019-02-23T09:50:24.681Z,55.89
2019-02-23T09:52:53.845Z,55.13
2019-02-23T09:55:22.945Z,54.43
2019-02-23T09:57:52.511Z,54.44
2019-02-23T10:00:21.615Z,54.21
2019-02-23T10:02:50.902Z,53.54
2019-02-23T10:05:21.609Z,53.50
2019-02-23T10:07:50.688Z,53.24
2019-02-23T10:10:19.717Z,53.03
2019-02-23T10:12:48.881Z,52.53
2019-02-23T10:15:18.051Z,52.73
2019-02-23T10:17:48.445Z,52.53
2019-02-23T10:20:17.569Z,51.93
2019-02-23T10:22:46.734Z,52.17
2019-02-23T10:25:18.055Z,52.01
2019-02-23T10:27:48.261Z,51.82
2019-02-23T10:30:18.829Z,51.91
2019-02-23T10:32:47.811Z,51.59
2019-02-23T10:35:16.739Z,51.96
2019-02-23T10:37:45.550Z,51.77
2019-02-23T10:40:14.748Z,51.63
2019-02-23T10:42:43.766Z,51.07
2019-02-23T10:45:13.105Z,51.47
2019-02-23T10:47:42.023Z,50.87
2019-02-23T10:50:11.098Z,50.47
2019-02-23T10:52:40.074Z,50.09
2019-02-23T10:55:10.188Z,50.26
2019-02-23T10:57:39.215Z,49.84
2019-02-23T11:00:14.785Z,49.55
2019-02-23T11:02:43.748Z,48.93
2019-02-23T11:05:12.916Z,48.67
2019-02-23T11:07:41.981Z,48.53
2019-02-23T11:10:11.297Z,48.26
2019-02-23T11:12:40.352Z,47.92
2019-02-23T11:15:10.512Z,47.58
2019-02-23T11:17:39.572Z,47.81
2019-02-23T11:20:10.103Z,47.48
2019-02-23T11:22:39.285Z,47.72
2019-02-23T11:25:08.803Z,47.19
2019-02-23T11:27:38.737Z,46.86
2019-02-23T11:30:08.972Z,46.77
2019-02-23T11:32:38.026Z,46.46
2019-02-23T11:35:07.770Z,46.35
2019-02-23T11:37:36.794Z,45.80
2019-02-23T11:40:06.564Z,45.83
2019-02-23T11:42:35.500Z,45.33
2019-02-23T11:45:04.732Z,44.61
2019-02-23T11:47:33.768Z,44.23
2019-02-23T11:50:02.727Z,43.50
2019-02-23T11:52:31.630Z,42.71
2019-02-23T11:55:00.571Z,42.18
2019-02-23T11:57:29.629Z,42.20
2019-02-23T11:59:58.468Z,42.60
2019-02-23T12:02:27.379Z,42.06
2019-02-23T12:04:56.369Z,41.71
2019-02-23T12:07:25.354Z,41.46
2019-02-23T12:09:54.246Z,40.46
2019-02-23T12:12:23.233Z,40.67
2019-02-23T12:14:52.148Z,40.66
2019-02-23T12:17:21.246Z,40.23
2019-02-23T12:19:50.062Z,39.74
2019-02-23T12:22:19.035Z,39.66
2019-02-23T12:24:48.100Z,39.35
2019-02-23T12:27:17.011Z,38.94
2019-02-23T12:29:45.986Z,38.98
2019-02-23T12:32:15.019Z,38.58
2019-02-23T12:34:43.880Z,38.74
2019-02-23T12:37:12.915Z,38.67
2019-02-23T12:39:41.850Z,38.37
2019-02-23T12:42:10.764Z,38.11
2019-02-23T12:44:39.576Z,37.64
2019-02-23T12:47:08.482Z,37.39
2019-02-23T12:49:37.428Z,37.66
2019-02-23T12:52:06.431Z,37.99
2019-02-23T12:54:35.425Z,38.05
2019-02-23T12:57:04.407Z,38.05
2019-02-23T12:59:33.466Z,38.03
2019-02-23T13:02:02.339Z,38.27
2019-02-23T13:04:31.541Z,37.96
2019-02-23T13:07:00.302Z,37.73
2019-02-23T13:09:32.034Z,37.41
2019-02-23T13:12:14.371Z,37.42
2019-02-23T13:15:00.667Z,37.42
2019-02-23T13:17:58.696Z,37.07
2019-02-23T13:21:11.968Z,36.50
2019-02-23T13:24:07.101Z,36.94
2019-02-23T13:27:16.616Z,36.57
2019-02-23T13:30:21.784Z,36.39
2019-02-23T13:33:33.062Z,36.73
2019-02-23T13:36:51.914Z,35.89
2019-02-23T13:39:33.138Z,35.06
2019-02-23T13:42:31.995Z,35.18
2019-02-23T13:45:25.125Z,34.09
2019-02-23T13:48:31.183Z,34.00
2019-02-23T13:51:32.941Z,33.56
2019-02-23T13:54:21.110Z,33.16
2019-02-23T13:57:11.241Z,33.72
2019-02-23T14:00:21.625Z,33.48
2019-02-23T14:03:25.753Z,33.46
2019-02-23T14:06:14.433Z,33.13
2019-02-23T14:09:45.955Z,32.89
2019-02-23T14:12:41.400Z,32.33
2019-02-23T14:15:40.429Z,30.86
2019-02-23T14:18:36.208Z,32.09
2019-02-23T14:21:34.454Z,31.37
2019-02-23T14:24:38.421Z,31.46
2019-02-23T14:27:38.652Z,32.20
2019-02-23T14:31:04.067Z,31.69
2019-02-23T14:34:00.994Z,30.29
2019-02-23T14:36:42.583Z,28.50
2019-02-23T14:39:42.907Z,28.23
2019-02-23T14:42:20.586Z,27.96
2019-02-23T14:45:25.663Z,28.00
2019-02-23T14:48:32.843Z,27.53
2019-02-23T14:51:23.899Z,27.48
2019-02-23T14:54:04.712Z,27.71
2019-02-23T14:57:17.237Z,28.34
2019-02-23T15:00:07.693Z,28.65
2019-02-23T15:03:19.514Z,29.64
2019-02-23T15:06:10.744Z,28.74
2019-02-23T15:08:52.669Z,27.19
2019-02-23T15:12:07.114Z,25.06
2019-02-23T15:15:25.047Z,25.12
2019-02-23T15:18:29.828Z,25.10
2019-02-23T15:21:25.997Z,25.17
2019-02-23T15:24:31.257Z,25.23
2019-02-23T15:27:37.721Z,24.89
2019-02-23T15:30:50.888Z,26.17
2019-02-23T15:34:15.172Z,26.26
2019-02-23T15:37:08.921Z,27.42
2019-02-23T15:40:13.644Z,27.12
2019-02-23T15:43:25.708Z,27.29
2019-02-23T15:46:05.713Z,27.60
2019-02-23T15:49:17.515Z,27.06
2019-02-23T15:51:46.444Z,26.39
2019-02-23T15:54:15.476Z,27.16
2019-02-23T15:56:44.374Z,27.18
2019-02-23T15:59:13.297Z,27.65
2019-02-23T16:01:42.263Z,27.83
2019-02-23T16:04:11.207Z,28.13
2019-02-23T16:06:40.168Z,28.28
2019-02-23T16:09:09.163Z,28.51
2019-02-23T16:11:38.142Z,28.72
2019-02-23T16:14:07.177Z,28.86
2019-02-23T16:16:36.147Z,29.21
2019-02-23T16:19:05.422Z,29.23
2019-02-23T16:21:34.290Z,28.98
2019-02-23T16:24:03.250Z,28.94
2019-02-23T16:26:32.306Z,29.47
2019-02-23T16:29:01.187Z,29.61
2019-02-23T16:31:30.205Z,29.57
2019-02-23T16:33:59.108Z,29.94
2019-02-23T16:36:28.077Z,29.86
2019-02-23T16:38:57.142Z,30.25
2019-02-23T16:41:26.104Z,30.37
2019-02-23T16:43:54.943Z,31.15
2019-02-23T16:46:23.937Z,31.27
2019-02-23T16:48:52.818Z,31.57
2019-02-23T16:51:21.826Z,31.87
2019-02-23T16:53:50.662Z,31.98
2019-02-23T16:56:19.656Z,32.23
2019-02-23T16:58:48.771Z,32.68
2019-02-23T17:01:17.669Z,33.16
2019-02-23T17:03:46.673Z,33.65
2019-02-23T17:06:15.569Z,33.81
2019-02-23T17:08:44.829Z,34.25
2019-02-23T17:11:13.852Z,34.17
2019-02-23T17:13:42.837Z,34.31
2019-02-23T17:16:11.696Z,34.42
2019-02-23T17:18:40.679Z,34.75
2019-02-23T17:21:09.930Z,36.20
2019-02-23T17:23:40.160Z,36.18
2019-02-23T17:26:09.277Z,36.46
2019-02-23T17:28:38.233Z,36.77
2019-02-23T17:31:07.037Z,37.67
2019-02-23T17:33:36.470Z,37.99
2019-02-23T17:36:05.508Z,38.66
2019-02-23T17:38:35.642Z,38.81
2019-02-23T17:41:05.017Z,39.46
2019-02-23T17:43:33.819Z,39.15
2019-02-23T17:46:02.730Z,39.83
2019-02-23T17:51:00.573Z,40.18
2019-02-23T17:53:29.383Z,39.85
2019-02-23T17:55:58.307Z,39.96
2019-02-23T17:58:27.311Z,39.97
2019-02-23T18:00:57.070Z,40.25
2019-02-23T18:03:25.968Z,40.11
2019-02-23T18:05:54.851Z,40.30
2019-02-23T18:08:23.734Z,39.81
2019-02-23T18:10:52.774Z,40.15
2019-02-23T18:13:21.634Z,39.84
2019-02-23T18:15:50.551Z,39.58
2019-02-23T18:18:19.546Z,39.84
2019-02-23T18:20:48.539Z,39.90
2019-02-23T18:23:17.415Z,40.16
2019-02-23T18:25:46.320Z,39.94
2019-02-23T18:28:15.164Z,38.83
2019-02-23T18:30:44.140Z,38.87
2019-02-23T18:33:13.091Z,38.47
2019-02-23T18:35:41.888Z,37.89
2019-02-23T18:38:10.802Z,38.10
2019-02-23T18:40:39.576Z,37.77
2019-02-23T18:43:08.570Z,38.37
2019-02-23T18:45:37.561Z,38.37
2019-02-23T18:48:06.356Z,38.19
2019-02-23T18:50:35.327Z,38.46
2019-02-23T18:53:04.283Z,38.51
2019-02-23T18:55:40.894Z,38.49
2019-02-23T18:58:03.734Z,38.82
2019-02-23T19:00:32.759Z,39.19
2019-02-23T19:03:01.611Z,39.29
2019-02-23T19:05:30.658Z,39.67
2019-02-23T19:07:59.503Z,39.91
2019-02-23T19:10:28.338Z,40.25
2019-02-23T19:12:57.292Z,40.63
2019-02-23T19:15:26.177Z,41.38
2019-02-23T19:17:55.259Z,41.34
2019-02-23T19:20:24.164Z,41.45
2019-02-23T19:22:53.143Z,41.61
2019-02-23T19:25:22.048Z,41.55
2019-02-23T19:27:51.107Z,41.42
2019-02-23T19:30:20.589Z,41.89
2019-02-23T19:32:49.660Z,42.19
2019-02-23T19:35:18.760Z,42.26
2019-02-23T19:37:47.811Z,42.49
2019-02-23T19:40:16.882Z,42.86
2019-02-23T19:42:45.826Z,43.07
2019-02-23T19:45:14.862Z,43.12
2019-02-23T19:47:43.694Z,43.88
2019-02-23T19:50:19.313Z,43.87
2019-02-23T19:52:48.305Z,44.19
2019-02-23T19:55:17.543Z,44.67
2019-02-23T19:57:46.572Z,44.04
2019-02-23T20:00:15.625Z,44.75
2019-02-23T20:02:44.526Z,44.95
2019-02-23T20:05:13.571Z,45.32
2019-02-23T20:07:42.440Z,45.83
2019-02-23T20:10:11.555Z,46.35
2019-02-23T20:12:40.760Z,46.78
2019-02-23T20:15:10.368Z,47.09
2019-02-23T20:17:49.062Z,47.44
2019-02-23T20:20:18.013Z,47.49
2019-02-23T20:22:46.986Z,47.49
2019-02-23T20:25:15.943Z,48.07
2019-02-23T20:27:44.852Z,48.42
2019-02-23T20:30:13.843Z,48.77
2019-02-23T20:32:42.787Z,48.89
2019-02-23T20:35:11.858Z,49.14
2019-02-23T20:37:40.852Z,49.28
2019-02-23T20:40:09.868Z,48.08
2019-02-23T20:42:38.763Z,48.66
2019-02-23T20:45:07.720Z,48.09
2019-02-23T20:47:36.745Z,47.45
2019-02-23T20:50:06.505Z,48.07
2019-02-23T20:52:35.399Z,48.38
2019-02-23T20:55:04.647Z,47.72
2019-02-23T20:57:33.658Z,47.69
2019-02-23T21:00:02.763Z,48.14
2019-02-23T21:02:31.809Z,47.37
2019-02-23T21:05:00.823Z,47.45
2019-02-23T21:07:29.665Z,48.25
2019-02-23T21:09:58.585Z,48.49
2019-02-23T21:12:28.555Z,49.36
2019-02-23T21:14:57.528Z,49.84
2019-02-23T21:17:26.378Z,49.36
2019-02-23T21:19:55.315Z,49.86
2019-02-23T21:22:24.219Z,49.88
2019-02-23T21:24:53.157Z,50.05
2019-02-23T21:27:22.053Z,50.05
2019-02-23T21:29:51.056Z,50.14
2019-02-23T21:32:20.071Z,49.90
2019-02-23T21:34:49.143Z,49.30
2019-02-23T21:37:17.979Z,48.43
2019-02-23T21:39:46.940Z,48.15
2019-02-23T21:42:15.948Z,48.30
2019-02-23T21:44:44.919Z,48.08
2019-02-23T21:47:13.826Z,49.16
2019-02-23T21:49:42.830Z,48.30
2019-02-23T21:52:11.856Z,48.30
2019-02-23T21:54:40.989Z,47.96
2019-02-23T21:57:09.863Z,48.00
2019-02-23T21:59:38.788Z,47.04
2019-02-23T22:02:07.691Z,47.06
2019-02-23T22:04:36.792Z,46.78
2019-02-23T22:07:05.840Z,45.55
2019-02-23T22:09:34.877Z,45.60
2019-02-23T22:12:03.759Z,45.22
2019-02-23T22:14:32.583Z,45.22
2019-02-23T22:17:01.461Z,45.76
2019-02-23T22:19:31.703Z,45.98
2019-02-23T22:22:00.661Z,46.27
2019-02-23T22:24:29.604Z,46.30
2019-02-23T22:26:58.505Z,46.26
2019-02-23T22:29:27.415Z,46.17
2019-02-23T22:31:56.328Z,46.39
2019-02-23T22:34:25.298Z,46.13
2019-02-23T22:36:54.215Z,45.71
2019-02-23T22:39:23.104Z,45.65
2019-02-23T22:41:52.062Z,45.71
2019-02-23T22:44:20.991Z,46.03
2019-02-23T22:46:49.915Z,46.49
2019-02-23T22:49:18.797Z,47.60
2019-02-23T22:51:47.681Z,47.26
2019-02-23T22:54:16.830Z,47.11
2019-02-23T22:56:46.036Z,46.83
2019-02-23T22:59:15.041Z,46.20
2019-02-23T23:01:44.055Z,46.52
2019-02-23T23:04:12.921Z,46.72
2019-02-23T23:06:41.931Z,46.92
2019-02-23T23:09:14.826Z,47.20
2019-02-23T23:11:43.678Z,47.98
2019-02-23T23:14:12.668Z,47.70
2019-02-23T23:16:41.459Z,47.49
2019-02-23T23:19:10.371Z,46.36
2019-02-23T23:21:39.349Z,46.69
2019-02-23T23:24:08.256Z,46.53
2019-02-23T23:26:37.206Z,46.64
2019-02-23T23:29:06.197Z,46.35
2019-02-23T23:31:35.264Z,46.40
2019-02-23T23:34:04.117Z,45.69
2019-02-23T23:36:33.272Z,46.04
2019-02-23T23:39:02.067Z,45.51
2019-02-23T23:41:31.037Z,45.66
2019-02-23T23:43:59.849Z,45.69
2019-02-23T23:46:28.967Z,45.67
2019-02-23T23:48:57.744Z,45.14
2019-02-23T23:51:26.566Z,45.71
2019-02-23T23:53:55.410Z,44.91
2019-02-23T23:56:24.404Z,45.05
2019-02-23T23:58:53.343Z,45.15
